Aumsville, Oregon
Current Conditions -  °F | °C
As of 10:56 PM on Saturday 22 Nov 2014 (Local Time) from KSLE Reporting Station
Broken Clouds Broken Clouds  
Wind Chill: 43°   Ceiling: 5500
Heat Index: 47°   Visibility: 10mi
Dew Point: 41°   Wind: 8mph
Humidity: 80%   Direction: 180°S
Pressure: 30.25"   Gusts: NA
Location:  44.84°N, 122.87°W
Report Text: KSLE 230656Z AUTO 18007KT 10SM BKN055 08/05 A3025 RMK AO2 SLP244 T00830050
Loading
Personal Weather Stations






























Interactive Weather Map New forecast layout! Learn more

10-Day Weather Forecast

Advertisements
Track Severe Weather on mobile